createdAt,value
2023-01-20T16:02:50.314Z,0.10
2023-01-20T16:05:18.165Z,0.10
2023-01-20T16:07:47.749Z,0.10
2023-01-20T16:10:17.503Z,0.10
2023-01-20T16:12:45.421Z,0.20
2023-01-20T16:15:16.729Z,0.20
2023-01-20T16:17:44.644Z,0.23
2023-01-20T16:20:20.062Z,0.20
2023-01-20T16:22:47.796Z,0.30
2023-01-20T16:25:15.904Z,0.33
2023-01-20T16:27:43.632Z,0.30
2023-01-20T16:30:14.472Z,0.30
2023-01-20T16:32:42.307Z,0.30
2023-01-20T16:35:10.239Z,0.30
2023-01-20T16:37:39.381Z,0.30
2023-01-20T16:40:07.753Z,0.30
2023-01-20T16:42:36.039Z,0.33
2023-01-20T16:45:03.797Z,0.37
2023-01-20T16:47:31.517Z,0.30
2023-01-20T16:49:59.242Z,0.30
2023-01-20T16:52:27.043Z,0.40
2023-01-20T16:54:56.246Z,0.40
2023-01-20T16:57:24.024Z,0.30
2023-01-20T16:59:51.730Z,0.33
2023-01-20T17:02:19.551Z,0.40
2023-01-20T17:04:47.366Z,0.40
2023-01-20T17:07:15.076Z,0.30
2023-01-20T17:09:43.599Z,0.30
2023-01-20T17:12:12.743Z,0.30
2023-01-20T17:14:40.415Z,0.30
2023-01-20T17:17:08.068Z,0.30
2023-01-20T17:19:35.929Z,0.40
2023-01-20T17:22:03.691Z,0.40
2023-01-20T17:24:33.061Z,0.30
2023-01-20T17:27:00.807Z,0.40
2023-01-20T17:29:29.897Z,0.50
2023-01-20T17:31:57.703Z,0.40
2023-01-20T17:34:25.405Z,0.40
2023-01-20T17:36:53.441Z,0.40
2023-01-20T17:39:21.139Z,0.50
2023-01-20T17:41:48.915Z,0.50
2023-01-20T17:44:16.693Z,0.40
2023-01-20T17:46:45.740Z,0.40
2023-01-20T17:49:13.510Z,0.40
2023-01-20T17:51:41.170Z,0.40
2023-01-20T17:54:09.620Z,0.50
2023-01-20T17:56:37.338Z,0.50
2023-01-20T17:59:05.101Z,0.50
2023-01-20T18:01:33.575Z,0.50
2023-01-20T18:04:04.415Z,0.50
2023-01-20T18:06:35.069Z,0.50
2023-01-20T18:09:02.910Z,0.50
2023-01-20T18:11:31.840Z,0.40
2023-01-20T18:14:00.435Z,0.50
2023-01-20T18:16:29.356Z,0.50
2023-01-20T18:18:58.968Z,0.50
2023-01-20T18:21:29.981Z,0.40
2023-01-20T18:23:57.823Z,0.40
2023-01-20T18:26:27.164Z,0.50
2023-01-20T18:28:55.264Z,0.50
2023-01-20T18:31:24.131Z,0.50
2023-01-20T18:33:52.964Z,0.60
2023-01-20T18:36:23.664Z,0.53
2023-01-20T18:38:53.653Z,0.50
2023-01-20T18:41:21.999Z,0.50
2023-01-20T18:43:49.841Z,0.50
2023-01-20T18:46:17.852Z,0.60
2023-01-20T18:48:46.510Z,0.50
2023-01-20T18:51:15.866Z,0.60
2023-01-20T18:53:44.166Z,0.60
2023-01-20T18:56:14.119Z,0.60
2023-01-20T18:58:45.689Z,0.50
2023-01-20T19:01:14.685Z,0.60
2023-01-20T19:03:43.011Z,0.60
2023-01-20T19:06:12.081Z,0.50
2023-01-20T19:08:40.184Z,0.53
2023-01-20T19:11:09.933Z,0.60
2023-01-20T19:13:39.187Z,0.60
2023-01-20T19:16:10.340Z,0.50
2023-01-20T19:18:38.605Z,0.60
2023-01-20T19:21:07.195Z,0.50
2023-01-20T19:23:35.209Z,0.50
2023-01-20T19:26:03.052Z,0.50
2023-01-20T19:28:30.847Z,0.50
2023-01-20T19:31:05.974Z,0.60
2023-01-20T19:33:34.024Z,0.50
2023-01-20T19:36:02.896Z,0.60
2023-01-20T19:38:30.787Z,0.50
2023-01-20T19:41:05.386Z,0.57
2023-01-20T19:43:33.177Z,0.50
2023-01-20T19:46:01.929Z,0.57
2023-01-20T19:48:31.807Z,0.50
2023-01-20T19:51:02.727Z,0.50
2023-01-20T19:53:30.530Z,0.60
2023-01-20T19:56:01.839Z,0.60
2023-01-20T19:58:29.606Z,0.60
2023-01-20T20:00:57.339Z,0.50
2023-01-20T20:03:31.489Z,0.50
2023-01-20T20:06:00.811Z,0.60
2023-01-20T20:08:28.574Z,0.60
2023-01-20T20:10:59.287Z,0.60
2023-01-20T20:13:27.083Z,0.60
2023-01-20T20:16:01.062Z,0.50
2023-01-20T20:18:29.040Z,0.50
2023-01-20T20:20:56.840Z,0.50
2023-01-20T20:23:25.994Z,0.50
2023-01-20T20:25:56.311Z,0.60
2023-01-20T20:28:24.795Z,0.50
2023-01-20T20:30:52.721Z,0.60
2023-01-20T20:33:20.473Z,0.60
2023-01-20T20:35:48.273Z,0.50
2023-01-20T20:38:16.301Z,0.60
2023-01-20T20:40:45.583Z,0.50
2023-01-20T20:43:13.446Z,0.50
2023-01-20T20:45:41.290Z,0.60
2023-01-20T20:48:10.021Z,0.50
2023-01-20T20:50:37.800Z,0.60
2023-01-20T20:53:05.578Z,0.50
2023-01-20T20:55:33.369Z,0.50
2023-01-20T20:58:02.464Z,0.60
2023-01-20T21:00:30.478Z,0.70
2023-01-20T21:02:58.349Z,0.70
2023-01-20T21:05:26.085Z,0.60
2023-01-20T21:07:53.873Z,0.60
2023-01-20T21:10:21.622Z,0.60
2023-01-20T21:12:49.465Z,0.70
2023-01-20T21:15:19.882Z,0.70
2023-01-20T21:17:47.529Z,0.50
2023-01-20T21:20:15.498Z,0.50
2023-01-20T21:22:43.373Z,0.60
2023-01-20T21:25:11.458Z,0.50
2023-01-20T21:27:39.419Z,0.50
2023-01-20T21:30:07.802Z,0.60
2023-01-20T21:32:40.897Z,0.50
2023-01-20T21:35:09.299Z,0.60
2023-01-20T21:37:37.186Z,0.60
2023-01-20T21:40:05.117Z,0.60
2023-01-20T21:42:32.824Z,0.60
2023-01-20T21:45:00.568Z,0.50
2023-01-20T21:47:28.308Z,0.40
2023-01-20T21:50:15.331Z,0.50
2023-01-20T21:52:44.139Z,0.60
2023-01-20T21:55:13.390Z,0.60
2023-01-20T21:57:41.187Z,0.50
2023-01-20T22:00:09.785Z,0.40
2023-01-20T22:02:37.509Z,0.40
2023-01-20T22:05:06.965Z,0.40
2023-01-20T22:07:34.730Z,0.50
2023-01-20T22:10:02.551Z,0.50
